Time;durP1;ratioP1;P1;durP2;ratioP2;P2;SDS_P1;SDS_P2;PMS_P1;PMS_P2;Temp;Humidity;BMP_temperature;BMP_pressure;BME280_temperature;BME280_humidity;BME280_pressure;Samples;Min_cycle;Max_cycle;Signal;HPM_P1;HPM_P2
2021/12/03 00:01:33;;;;;;;13.63;5.47;;;;;;;-0.64;95.32;98472.22;5051022;28;20492;-85
2021/12/03 00:03:58;;;;;;;9.93;4.72;;;;;;;-0.54;95.47;98483.97;5051143;28;20497;-86
2021/12/03 00:06:24;;;;;;;11.35;4.88;;;;;;;-0.56;95.45;98479.75;5051135;28;20112;-85
2021/12/03 00:08:49;;;;;;;11.18;5.38;;;;;;;-0.55;95.28;98481.44;5049127;28;20464;-85
2021/12/03 00:11:16;;;;;;;11.48;5.40;;;;;;;-0.60;95.17;98476.41;5032327;28;20053;-86
2021/12/03 00:13:42;;;;;;;13.02;5.28;;;;;;;-0.66;95.57;98479.09;5032214;28;20025;-85
2021/12/03 00:16:10;;;;;;;11.88;5.55;;;;;;;-0.70;95.07;98472.38;5014605;28;20029;-85
2021/12/03 00:18:36;;;;;;;10.95;4.63;;;;;;;-0.63;95.89;98491.84;5014311;28;20026;-86
2021/12/03 00:21:04;;;;;;;10.80;4.95;;;;;;;-0.64;95.84;98504.63;5014426;28;20095;-86
2021/12/03 00:23:31;;;;;;;12.73;4.95;;;;;;;-0.76;96.00;98500.59;4990335;28;20030;-86
2021/12/03 00:26:00;;;;;;;9.00;5.03;;;;;;;-0.66;95.74;98511.50;4990090;28;20042;-86
2021/12/03 00:28:29;;;;;;;11.00;5.47;;;;;;;-0.70;96.06;98527.78;4974064;28;20034;-86
2021/12/03 00:30:55;;;;;;;11.15;5.85;;;;;;;-0.86;96.47;98511.88;4989948;28;20057;-86
2021/12/03 00:33:20;;;;;;;11.63;4.80;;;;;;;-0.99;96.80;98507.88;4990270;28;20084;-85
2021/12/03 00:35:46;;;;;;;8.30;4.80;;;;;;;-1.11;96.92;98512.31;4990093;28;20038;-86
2021/12/03 00:38:12;;;;;;;9.52;4.72;;;;;;;-1.11;97.44;98540.44;4990322;28;20030;-85
2021/12/03 00:40:39;;;;;;;9.00;4.72;;;;;;;-1.16;97.88;98533.72;4990062;28;20089;-85
2021/12/03 00:43:06;;;;;;;8.65;4.35;;;;;;;-1.18;97.59;98536.31;4989993;28;20072;-86
2021/12/03 00:45:32;;;;;;;9.05;4.20;;;;;;;-1.13;98.59;98537.06;4990143;28;20044;-86
2021/12/03 00:47:58;;;;;;;10.43;5.13;;;;;;;-1.11;98.53;98547.25;4989861;28;20034;-86
2021/12/03 00:50:26;;;;;;;10.65;4.63;;;;;;;-1.04;98.50;98554.81;4990249;28;20038;-86
2021/12/03 00:52:52;;;;;;;8.45;4.40;;;;;;;-1.15;98.83;98549.03;4973585;28;20122;-86
2021/12/03 00:55:20;;;;;;;8.40;4.38;;;;;;;-1.13;98.76;98554.97;4986687;28;20042;-86
2021/12/03 00:57:46;;;;;;;9.68;4.03;;;;;;;-1.19;98.86;98549.94;4973504;28;20070;-86
2021/12/03 01:00:17;;;;;;;7.50;4.85;;;;;;;-1.17;99.30;98566.09;4973700;28;20077;-86
2021/12/03 01:02:43;;;;;;;9.25;4.47;;;;;;;-1.28;99.68;98552.66;4989617;28;20030;-86
2021/12/03 01:05:09;;;;;;;9.45;4.07;;;;;;;-1.22;99.81;98580.66;4973751;28;20137;-86
2021/12/03 01:07:35;;;;;;;10.38;4.43;;;;;;;-1.25;100.00;98583.25;4973628;28;20039;-86
2021/12/03 01:10:01;;;;;;;8.48;5.00;;;;;;;-1.38;100.00;98562.19;5012157;28;20054;-86
2021/12/03 01:12:26;;;;;;;9.05;4.18;;;;;;;-1.34;100.00;98578.31;5029073;28;20075;-86
2021/12/03 01:14:52;;;;;;;8.05;4.63;;;;;;;-1.36;100.00;98591.09;5029077;28;20040;-86
2021/12/03 01:17:17;;;;;;;8.60;4.82;;;;;;;-1.47;100.00;98587.88;5028869;28;20022;-86
2021/12/03 01:19:43;;;;;;;8.80;4.47;;;;;;;-1.36;100.00;98615.78;5028386;28;20044;-86
2021/12/03 01:22:08;;;;;;;9.80;5.18;;;;;;;-1.45;100.00;98611.66;5029119;28;20056;-86
2021/12/03 01:24:34;;;;;;;9.77;5.05;;;;;;;-1.51;100.00;98599.84;5029064;28;20144;-86
2021/12/03 01:27:00;;;;;;;6.95;4.45;;;;;;;-1.56;100.00;98591.41;5028852;28;20037;-85
2021/12/03 01:29:26;;;;;;;7.82;4.35;;;;;;;-1.54;100.00;98602.44;5012658;28;20214;-86
2021/12/03 01:31:54;;;;;;;7.38;4.25;;;;;;;-1.58;100.00;98605.91;5032508;28;20095;-85
2021/12/03 01:34:20;;;;;;;11.68;3.92;;;;;;;-1.52;100.00;98617.72;5054123;28;20514;-85
2021/12/03 01:36:46;;;;;;;8.82;4.70;;;;;;;-1.53;100.00;98616.88;5055198;28;20480;-86
2021/12/03 01:39:13;;;;;;;7.20;4.10;;;;;;;-1.78;100.00;98583.19;5053967;28;20025;-85
2021/12/03 01:41:39;;;;;;;6.57;3.90;;;;;;;-1.64;100.00;98610.25;5053757;28;20025;-85
2021/12/03 01:44:05;;;;;;;6.43;4.38;;;;;;;-1.63;100.00;98611.94;5054055;28;20376;-86
2021/12/03 01:46:32;;;;;;;7.43;4.20;;;;;;;-1.62;100.00;98626.38;5053904;28;20544;-85
2021/12/03 01:48:58;;;;;;;8.73;4.43;;;;;;;-1.62;100.00;98640.00;5053771;28;20025;-85
2021/12/03 01:51:24;;;;;;;8.82;4.38;;;;;;;-1.82;100.00;98616.44;5053873;28;20021;-85
2021/12/03 01:53:50;;;;;;;12.48;4.40;;;;;;;-1.66;100.00;98656.22;5053607;28;20124;-85
2021/12/03 01:56:18;;;;;;;7.50;4.50;;;;;;;-1.70;100.00;98649.47;5053875;28;20031;-86
2021/12/03 01:58:47;;;;;;;6.82;4.40;;;;;;;-1.82;100.00;98632.59;5053372;28;20388;-85
2021/12/03 02:01:15;;;;;;;11.60;4.38;;;;;;;-1.78;100.00;98653.81;5053498;28;20037;-86
2021/12/03 02:03:42;;;;;;;8.43;4.38;;;;;;;-1.88;100.00;98644.63;5053415;28;20028;-86
2021/12/03 02:06:10;;;;;;;8.02;3.67;;;;;;;-1.88;100.00;98645.44;5053538;28;20025;-85
2021/12/03 02:08:36;;;;;;;8.00;4.13;;;;;;;-1.85;100.00;98665.84;5055070;28;20028;-85
2021/12/03 02:11:03;;;;;;;6.90;3.90;;;;;;;-1.85;100.00;98665.00;5036281;28;20048;-85
2021/12/03 02:13:29;;;;;;;8.23;4.13;;;;;;;-1.86;100.00;98674.34;5016713;28;20052;-85
2021/12/03 02:15:54;;;;;;;5.55;3.75;;;;;;;-1.91;100.00;98676.09;5016576;28;20528;-85
2021/12/03 02:18:20;;;;;;;8.50;4.32;;;;;;;-1.92;100.00;98686.34;5016891;28;20037;-86
2021/12/03 02:20:58;;;;;;;8.60;4.40;;;;;;;-1.97;100.00;98686.41;5016717;28;20017;-85
2021/12/03 02:23:24;;;;;;;7.80;4.32;;;;;;;-2.00;100.00;98688.97;5016615;28;20029;-85
2021/12/03 02:25:50;;;;;;;9.43;5.13;;;;;;;-2.03;100.00;98686.44;5016274;28;20021;-85
2021/12/03 02:28:18;;;;;;;10.15;4.72;;;;;;;-1.99;100.00;98694.91;5034466;28;20064;-85
2021/12/03 02:30:44;;;;;;;9.48;4.53;;;;;;;-2.01;100.00;98697.50;5034404;28;20033;-85
2021/12/03 02:33:10;;;;;;;9.30;5.00;;;;;;;-2.03;100.00;98697.50;5016530;28;20029;-86
2021/12/03 02:35:39;;;;;;;10.30;4.63;;;;;;;-2.12;100.00;98692.50;5034170;28;20070;-86
2021/12/03 02:38:05;;;;;;;7.53;3.67;;;;;;;-2.24;100.00;98674.78;5033898;28;20495;-85
2021/12/03 02:40:30;;;;;;;8.13;4.63;;;;;;;-2.14;100.00;98693.41;5016383;28;20022;-86
2021/12/03 02:42:55;;;;;;;9.23;4.55;;;;;;;-2.20;100.00;98688.34;5015458;28;20087;-86
2021/12/03 02:45:21;;;;;;;6.70;4.15;;;;;;;-2.12;100.00;98702.72;5015764;28;20025;-85
2021/12/03 02:47:47;;;;;;;8.80;4.30;;;;;;;-2.22;100.00;98690.09;5016259;28;20025;-85
2021/12/03 02:50:14;;;;;;;11.35;4.30;;;;;;;-2.21;100.00;98696.88;5034043;28;20034;-86
2021/12/03 02:52:41;;;;;;;9.75;4.47;;;;;;;-2.31;100.00;98693.59;5016012;28;20040;-86
2021/12/03 02:55:07;;;;;;;6.72;3.80;;;;;;;-2.39;100.00;98686.00;5033481;28;20030;-85
2021/12/03 02:57:34;;;;;;;9.77;4.78;;;;;;;-2.22;100.00;98728.34;5016203;28;20033;-86
2021/12/03 02:59:59;;;;;;;9.23;4.20;;;;;;;-2.24;100.00;98724.94;5015903;28;20044;-85
2021/12/03 03:02:25;;;;;;;6.25;4.00;;;;;;;-2.28;100.00;98724.97;5015914;28;20041;-86
2021/12/03 03:04:52;;;;;;;9.60;4.10;;;;;;;-2.29;100.00;98730.09;5015739;28;20026;-86
2021/12/03 03:07:18;;;;;;;8.60;4.35;;;;;;;-2.40;100.00;98717.47;5033580;28;20470;-85
2021/12/03 03:09:45;;;;;;;6.85;4.00;;;;;;;-2.31;100.00;98736.94;5033036;28;20045;-86
2021/12/03 03:12:13;;;;;;;8.02;4.55;;;;;;;-2.37;100.00;98737.81;5033612;28;20021;-86
2021/12/03 03:14:55;;;;;;;12.02;4.72;;;;;;;-2.40;100.00;98732.78;5016003;28;20037;-86
2021/12/03 03:17:23;;;;;;;6.68;4.72;;;;;;;-2.39;100.00;98739.56;5015805;28;20030;-85
2021/12/03 03:19:49;;;;;;;9.88;4.50;;;;;;;-2.36;100.00;98744.63;5015479;28;20029;-86
2021/12/03 03:22:15;;;;;;;9.73;4.45;;;;;;;-2.44;100.00;98732.78;5033233;28;20025;-86
2021/12/03 03:24:41;;;;;;;9.75;4.28;;;;;;;-2.41;100.00;98745.50;5015710;28;20038;-85
2021/12/03 03:27:08;;;;;;;6.03;3.50;;;;;;;-2.41;100.00;98751.44;5015291;28;20029;-85
2021/12/03 03:29:33;;;;;;;6.18;3.92;;;;;;;-2.43;100.00;98753.19;5015497;28;20040;-86
2021/12/03 03:31:59;;;;;;;7.30;4.07;;;;;;;-2.46;100.00;98745.56;5010378;28;20034;-85
2021/12/03 03:34:24;;;;;;;13.15;4.07;;;;;;;-2.49;100.00;98744.72;5010800;28;20038;-84
2021/12/03 03:36:51;;;;;;;6.95;3.80;;;;;;;-2.48;100.00;98756.66;5010606;28;20045;-86
2021/12/03 03:39:16;;;;;;;8.35;3.63;;;;;;;-2.51;100.00;98748.16;5010743;28;20045;-85
2021/12/03 03:41:42;;;;;;;8.88;4.07;;;;;;;-2.60;100.00;98729.53;5010716;28;20042;-85
2021/12/03 03:44:09;;;;;;;10.23;4.20;;;;;;;-2.49;100.00;98747.28;5010456;28;20100;-85
2021/12/03 03:46:35;;;;;;;8.05;3.95;;;;;;;-2.53;100.00;98749.00;5010666;28;20515;-84
2021/12/03 03:49:01;;;;;;;6.47;4.20;;;;;;;-2.55;100.00;98759.22;5010559;28;20401;-85
2021/12/03 03:51:26;;;;;;;8.32;4.30;;;;;;;-2.73;100.00;98726.25;4993942;28;20033;-85
2021/12/03 03:53:52;;;;;;;7.88;4.10;;;;;;;-2.58;100.00;98756.69;5010172;28;20093;-85
2021/12/03 03:56:17;;;;;;;6.15;3.67;;;;;;;-2.65;100.00;98742.34;5010408;28;20485;-85
2021/12/03 03:58:43;;;;;;;7.60;3.95;;;;;;;-2.60;100.00;98758.44;4993940;28;20040;-85
2021/12/03 04:01:12;;;;;;;7.95;4.35;;;;;;;-2.65;100.00;98749.97;4993796;28;20489;-85
2021/12/03 04:03:39;;;;;;;5.28;3.88;;;;;;;-2.66;100.00;98742.31;4993872;28;20033;-85
2021/12/03 04:06:05;;;;;;;6.80;3.55;;;;;;;-2.64;100.00;98755.91;5009981;28;20171;-85
2021/12/03 04:08:31;;;;;;;8.15;3.90;;;;;;;-2.81;100.00;98725.47;5010309;28;20037;-85
2021/12/03 04:10:58;;;;;;;8.25;3.35;;;;;;;-2.89;100.00;98722.97;5026651;28;20053;-85
2021/12/03 04:13:24;;;;;;;7.57;4.20;;;;;;;-2.77;100.00;98740.72;5013451;28;20033;-85
2021/12/03 04:15:50;;;;;;;6.03;3.40;;;;;;;-2.71;100.00;98762.75;5029648;28;20412;-85
2021/12/03 04:18:16;;;;;;;7.10;4.00;;;;;;;-2.78;100.00;98756.03;5013286;28;20033;-85
2021/12/03 04:20:41;;;;;;;12.73;4.13;;;;;;;-2.70;100.00;98774.63;5029725;28;20124;-85
2021/12/03 04:23:08;;;;;;;8.52;3.83;;;;;;;-2.78;100.00;98779.81;5012948;28;20025;-85
2021/12/03 04:25:34;;;;;;;8.93;4.22;;;;;;;-2.81;100.00;98779.81;5013204;28;20219;-85
2021/12/03 04:28:00;;;;;;;10.27;4.82;;;;;;;-2.79;100.00;98779.81;5029382;28;20181;-85
2021/12/03 04:30:28;;;;;;;12.95;4.70;;;;;;;-2.92;100.00;98755.25;5010436;28;20046;-84
2021/12/03 04:32:55;;;;;;;8.23;4.25;;;;;;;-2.83;100.00;98788.31;4993048;28;20040;-84
2021/12/03 04:35:23;;;;;;;8.23;3.95;;;;;;;-2.80;100.00;98789.16;4993347;28;20176;-85
2021/12/03 04:37:49;;;;;;;8.05;3.95;;;;;;;-3.01;100.00;98758.72;5009826;28;20034;-84
2021/12/03 04:40:16;;;;;;;6.97;4.03;;;;;;;-2.86;100.00;98783.28;5009702;28;20040;-85
2021/12/03 04:42:42;;;;;;;8.50;4.38;;;;;;;-2.86;100.00;98786.66;4993353;28;20385;-85
2021/12/03 04:45:10;;;;;;;6.00;4.45;;;;;;;-2.83;100.00;98785.78;4993027;28;20153;-84
2021/12/03 04:47:36;;;;;;;8.65;4.65;;;;;;;-2.86;100.00;98783.28;4993170;28;20435;-85
2021/12/03 04:50:04;;;;;;;15.38;5.50;;;;;;;-2.99;100.00;98772.31;4992956;28;20037;-85
2021/12/03 04:52:30;;;;;;;7.57;4.63;;;;;;;-2.88;100.00;98784.97;4992988;28;20057;-85
2021/12/03 04:54:55;;;;;;;8.30;5.32;;;;;;;-2.89;100.00;98794.31;4992888;28;20560;-85
2021/12/03 04:57:21;;;;;;;11.52;4.25;;;;;;;-3.01;100.00;98774.00;4993155;28;20021;-86
2021/12/03 04:59:46;;;;;;;10.63;5.25;;;;;;;-3.01;100.00;98782.50;5027842;28;20037;-85
2021/12/03 05:02:12;;;;;;;9.07;4.20;;;;;;;-2.97;100.00;98790.97;5013658;28;20424;-85
2021/12/03 05:04:38;;;;;;;7.97;4.32;;;;;;;-2.93;100.00;98799.44;5031977;28;20117;-86
2021/12/03 05:09:31;;;;;;;9.25;4.00;;;;;;;-3.01;100.00;98797.78;5035892;28;20058;-85
2021/12/03 05:11:57;;;;;;;16.38;5.05;;;;;;;-3.00;100.00;98796.06;5035451;28;20075;-85
2021/12/03 05:14:22;;;;;;;8.50;4.90;;;;;;;-2.99;100.00;98794.38;5017920;28;20041;-84
2021/12/03 05:16:48;;;;;;;9.48;4.85;;;;;;;-3.09;100.00;98785.94;5017742;28;20027;-85
2021/12/03 05:19:17;;;;;;;9.75;4.55;;;;;;;-3.07;100.00;98790.19;5035541;28;20101;-85
2021/12/03 05:21:43;;;;;;;9.25;4.72;;;;;;;-3.09;100.00;98783.38;5017709;28;20030;-85
2021/12/03 05:24:10;;;;;;;9.60;4.43;;;;;;;-3.03;100.00;98796.94;5017591;28;20063;-85
2021/12/03 05:26:38;;;;;;;8.38;4.55;;;;;;;-2.98;100.00;98807.13;5017716;28;20030;-85
2021/12/03 05:29:05;;;;;;;8.77;4.85;;;;;;;-3.16;100.00;98790.25;5017407;28;20144;-85
2021/12/03 05:31:31;;;;;;;11.23;5.07;;;;;;;-3.08;100.00;98800.34;5017449;28;20030;-85
2021/12/03 05:33:57;;;;;;;11.35;4.90;;;;;;;-3.04;100.00;98805.44;5035110;28;20047;-83
2021/12/03 05:36:22;;;;;;;9.90;4.82;;;;;;;-3.12;100.00;98807.19;5035799;28;20029;-84
2021/12/03 05:38:48;;;;;;;11.57;5.00;;;;;;;-3.05;100.00;98826.66;5017633;28;20033;-84
2021/12/03 05:41:13;;;;;;;10.68;4.88;;;;;;;-3.05;100.00;98829.22;5034945;28;20034;-84
2021/12/03 05:43:38;;;;;;;10.75;4.70;;;;;;;-3.12;100.00;98827.56;5035203;28;20025;-85
2021/12/03 05:46:04;;;;;;;10.80;4.80;;;;;;;-3.06;100.00;98841.97;5017095;28;20072;-83
2021/12/03 05:48:29;;;;;;;10.50;5.13;;;;;;;-3.09;100.00;98837.72;5035238;28;20037;-84
2021/12/03 05:50:55;;;;;;;11.15;5.15;;;;;;;-3.12;100.00;98836.88;5017022;28;20021;-85
2021/12/03 05:53:20;;;;;;;9.48;5.80;;;;;;;-3.05;100.00;98849.59;5035031;28;20038;-86
2021/12/03 05:55:46;;;;;;;11.57;5.00;;;;;;;-3.14;100.00;98831.81;5031866;28;20373;-86
2021/12/03 05:58:11;;;;;;;7.80;4.65;;;;;;;-3.02;100.00;98857.22;5054539;28;20029;-86
2021/12/03 06:00:45;;;;;;;11.63;5.50;;;;;;;-3.16;100.00;98841.19;5054600;28;20025;-85
2021/12/03 06:03:12;;;;;;;7.97;5.35;;;;;;;-3.07;100.00;98851.31;5054392;28;20055;-85
2021/12/03 06:05:40;;;;;;;9.60;5.40;;;;;;;-3.03;100.00;98868.28;5036878;28;20032;-86
2021/12/03 06:08:07;;;;;;;10.52;5.60;;;;;;;-3.18;100.00;98852.22;5036412;28;20025;-85
2021/12/03 06:10:33;;;;;;;9.20;5.05;;;;;;;-3.13;100.00;98858.97;5054382;28;20053;-86
2021/12/03 06:12:59;;;;;;;14.82;5.95;;;;;;;-3.15;100.00;98857.31;5033255;28;20033;-85
2021/12/03 06:15:25;;;;;;;16.30;6.75;;;;;;;-3.06;100.00;98883.56;5036769;28;20037;-86
2021/12/03 06:17:51;;;;;;;9.07;5.75;;;;;;;-3.08;100.00;98880.16;5036413;28;20056;-85
2021/12/03 06:20:17;;;;;;;15.45;6.00;;;;;;;-3.08;100.00;98882.72;5036198;28;20057;-85
2021/12/03 06:22:43;;;;;;;13.88;6.35;;;;;;;-3.14;100.00;98875.13;5036486;28;20052;-85
2021/12/03 06:25:10;;;;;;;10.82;5.88;;;;;;;-3.13;100.00;98883.59;5036133;28;20369;-85
2021/12/03 06:27:37;;;;;;;11.63;6.70;;;;;;;-3.07;100.00;98892.06;5054185;28;20021;-85
2021/12/03 06:30:08;;;;;;;10.18;5.95;;;;;;;-3.05;100.00;98895.44;5053990;28;20565;-78
2021/12/03 06:32:34;;;;;;;12.27;6.13;;;;;;;-3.11;100.00;98887.00;5054221;28;20021;-78
2021/12/03 06:34:59;;;;;;;10.85;6.10;;;;;;;-3.05;100.00;98895.44;5054010;28;20029;-78
2021/12/03 06:37:25;;;;;;;14.57;6.32;;;;;;;-2.98;100.00;98911.56;5036118;28;20027;-78
2021/12/03 06:39:50;;;;;;;11.50;5.63;;;;;;;-3.08;100.00;98892.91;5053989;28;20029;-78
2021/12/03 06:42:16;;;;;;;10.13;5.95;;;;;;;-2.93;100.00;98916.66;5053489;28;20472;-82
2021/12/03 06:44:41;;;;;;;13.95;6.47;;;;;;;-2.94;100.00;98917.50;5053541;28;20434;-79
2021/12/03 06:47:07;;;;;;;11.73;6.55;;;;;;;-3.00;100.00;98900.53;5053531;28;20468;-78
2021/12/03 06:49:33;;;;;;;13.35;6.90;;;;;;;-3.00;100.00;98892.88;5053682;28;20431;-78
2021/12/03 06:52:05;;;;;;;15.40;7.22;;;;;;;-2.81;100.00;98919.13;5053598;28;20064;-78
2021/12/03 06:54:33;;;;;;;13.55;7.70;;;;;;;-2.83;100.00;98906.38;5053722;28;20051;-78
2021/12/03 06:57:00;;;;;;;11.20;6.57;;;;;;;-2.72;100.00;98913.16;5053433;28;20029;-79
2021/12/03 06:59:25;;;;;;;13.77;7.25;;;;;;;-2.51;100.00;98933.44;5054001;28;20090;-78
2021/12/03 07:01:51;;;;;;;14.20;6.97;;;;;;;-2.54;100.00;98907.94;5053621;28;20033;-78
2021/12/03 07:04:18;;;;;;;14.98;7.78;;;;;;;-2.40;100.00;98920.59;5035499;28;20571;-77
2021/12/03 07:06:44;;;;;;;11.68;6.55;;;;;;;-2.27;100.00;98935.84;5035581;28;20036;-78
2021/12/03 07:09:10;;;;;;;13.80;6.65;;;;;;;-2.26;100.00;98931.56;5052981;28;20028;-78
2021/12/03 07:11:35;;;;;;;13.15;7.30;;;;;;;-2.17;100.00;98940.88;5053240;28;20075;-78
2021/12/03 07:14:01;;;;;;;10.63;6.97;;;;;;;-2.15;100.00;98932.38;5053096;28;20041;-78
2021/12/03 07:16:27;;;;;;;11.13;7.10;;;;;;;-2.12;100.00;98929.75;5053267;28;20013;-78
2021/12/03 07:18:52;;;;;;;15.00;7.93;;;;;;;-2.17;100.00;98926.41;5035273;28;20450;-78
2021/12/03 07:21:18;;;;;;;17.08;7.05;;;;;;;-2.00;100.00;98941.59;5035179;28;20031;-78
2021/12/03 07:23:43;;;;;;;15.05;8.85;;;;;;;-1.97;100.00;98936.47;5053078;28;20033;-78
2021/12/03 07:26:10;;;;;;;25.02;11.73;;;;;;;-1.79;100.00;98950.78;5034809;28;20029;-78
2021/12/03 07:28:36;;;;;;;24.85;11.73;;;;;;;-1.67;100.00;98950.69;5035281;28;20029;-77
2021/12/03 07:31:03;;;;;;;22.30;11.52;;;;;;;-1.57;100.00;98939.53;5052064;28;20021;-77
2021/12/03 07:33:31;;;;;;;32.03;14.23;;;;;;;-1.22;100.00;98953.69;5052969;28;20033;-77
2021/12/03 07:35:57;;;;;;;49.75;20.05;;;;;;;-1.06;100.00;98944.13;5052660;28;20530;-77
2021/12/03 07:38:23;;;;;;;33.60;16.75;;;;;;;-0.85;100.00;98945.59;5052689;28;20029;-77
2021/12/03 07:40:50;;;;;;;28.70;13.52;;;;;;;-0.60;100.00;98952.09;5052766;28;20400;-78
2021/12/03 07:43:17;;;;;;;35.85;18.02;;;;;;;-0.41;100.00;98957.81;5034757;28;20029;-79
2021/12/03 07:45:48;;;;;;;38.38;15.90;;;;;;;-0.21;100.00;98961.81;5052840;28;20028;-77
2021/12/03 07:48:13;;;;;;;;;;;;;;;-0.06;100.00;98967.56;5034949;28;20174;-81
2021/12/03 07:50:40;;;;;;;33.70;16.30;;;;;;;0.03;100.00;98969.13;5034730;28;20006;-80
2021/12/03 07:53:07;;;;;;;37.63;18.60;;;;;;;0.08;100.00;98964.78;5052205;28;20372;-79
2021/12/03 07:55:32;;;;;;;36.97;16.55;;;;;;;0.21;100.00;98965.44;5052446;28;20480;-79
2021/12/03 07:57:58;;;;;;;32.75;16.45;;;;;;;0.39;100.00;98969.44;5052224;28;20021;-79
2021/12/03 08:00:24;;;;;;;28.40;14.90;;;;;;;0.48;100.00;98965.00;5052492;28;20029;-79
2021/12/03 08:02:49;;;;;;;26.48;13.45;;;;;;;0.46;100.00;98947.94;5052386;28;20029;-79
2021/12/03 08:05:15;;;;;;;24.08;11.85;;;;;;;0.56;99.01;98953.78;5052201;28;20081;-79
2021/12/03 08:07:45;;;;;;;26.05;12.23;;;;;;;0.65;98.78;98963.88;5052163;28;20111;-80
2021/12/03 08:10:11;;;;;;;27.85;14.75;;;;;;;0.76;98.26;98977.34;5051965;28;20045;-80
2021/12/03 08:12:39;;;;;;;37.38;15.15;;;;;;;0.67;97.28;98965.50;5034335;28;20031;-80
2021/12/03 08:15:05;;;;;;;23.92;12.55;;;;;;;0.81;97.35;98970.41;5017641;28;20048;-80
2021/12/03 08:17:30;;;;;;;16.50;8.50;;;;;;;0.70;97.06;98937.28;5052133;28;20028;-79
2021/12/03 08:19:56;;;;;;;20.58;9.75;;;;;;;0.89;96.87;98973.69;5052140;28;20036;-80
2021/12/03 08:22:21;;;;;;;22.02;9.73;;;;;;;0.69;96.08;98943.28;5033962;28;20024;-79
2021/12/03 08:24:47;;;;;;;46.10;24.27;;;;;;;0.77;95.71;98950.84;5034241;28;20025;-80
2021/12/03 08:27:12;;;;;;;41.58;25.60;;;;;;;0.88;95.85;98966.00;5051717;28;20052;-80
2021/12/03 08:29:38;;;;;;;27.05;16.63;;;;;;;0.91;95.65;98968.53;5034357;28;20124;-79
2021/12/03 08:32:03;;;;;;;28.13;17.70;;;;;;;0.93;95.28;98975.31;5038180;28;20052;-79
2021/12/03 08:34:29;;;;;;;26.45;16.48;;;;;;;0.88;95.05;98955.75;5047523;28;20052;-80
2021/12/03 08:36:54;;;;;;;30.40;21.90;;;;;;;0.94;94.84;98971.03;5013776;28;20036;-81
2021/12/03 08:39:20;;;;;;;70.90;44.92;;;;;;;0.91;95.01;98982.19;5041055;28;20029;-80
2021/12/03 08:41:45;;;;;;;49.70;30.92;;;;;;;0.84;95.24;98983.16;5050969;28;20495;-80
2021/12/03 08:44:11;;;;;;;21.73;13.82;;;;;;;0.74;94.89;98966.25;5009268;28;20069;-80
2021/12/03 08:46:37;;;;;;;12.43;8.57;;;;;;;0.74;94.23;98973.94;5009714;28;20420;-79
2021/12/03 08:49:28;;;;;;;12.50;8.23;;;;;;;0.72;94.52;98978.28;5027932;28;20156;-79
2021/12/03 08:52:13;;;;;;;11.60;6.53;;;;;;;0.81;94.21;98996.06;5029366;28;20036;-79
2021/12/03 08:54:54;;;;;;;11.48;6.20;;;;;;;0.86;93.72;99001.94;5029365;28;20043;-79
2021/12/03 08:57:30;;;;;;;18.88;8.55;;;;;;;1.01;93.67;98990.53;5029378;28;20037;-79
2021/12/03 08:59:59;;;;;;;11.18;6.03;;;;;;;1.07;92.33;99007.56;5029009;28;20147;-79
2021/12/03 09:02:24;;;;;;;11.52;6.72;;;;;;;1.13;91.71;98984.34;5012754;28;20542;-79
2021/12/03 09:04:50;;;;;;;18.65;9.38;;;;;;;1.25;91.19;98987.50;5004410;28;20096;-79
2021/12/03 09:07:16;;;;;;;15.40;7.85;;;;;;;1.32;90.60;99000.22;5009368;28;20446;-79
2021/12/03 09:09:42;;;;;;;8.07;5.90;;;;;;;1.34;90.23;98998.47;5006284;28;20136;-80
2021/12/03 09:12:08;;;;;;;18.80;10.27;;;;;;;1.26;89.30;98990.91;5032007;28;20495;-80
2021/12/03 09:22:32;;;;;;;18.02;9.05;;;;;;;1.31;88.23;98989.13;4969988;28;20038;-80
2021/12/03 09:24:58;;;;;;;13.18;7.30;;;;;;;1.50;87.90;98987.88;4969988;28;20101;-79
2021/12/03 09:27:23;;;;;;;10.07;6.13;;;;;;;1.58;87.67;98971.47;4970234;28;20039;-79
2021/12/03 09:29:50;;;;;;;11.85;6.28;;;;;;;1.80;86.89;98975.25;4970342;28;20585;-79
2021/12/03 09:32:22;;;;;;;7.93;5.65;;;;;;;1.88;86.17;98952.81;4969951;28;20038;-80
2021/12/03 09:34:47;;;;;;;8.90;4.97;;;;;;;2.11;84.77;98972.03;4970143;28;20023;-80
2021/12/03 09:37:13;;;;;;;7.60;4.82;;;;;;;2.22;82.79;98983.72;4969624;28;20042;-78
2021/12/03 09:39:41;;;;;;;7.75;4.93;;;;;;;2.09;82.30;98984.88;4970203;28;20030;-79
2021/12/03 09:42:07;;;;;;;10.52;5.15;;;;;;;2.04;82.33;98991.84;4970035;28;20042;-79
2021/12/03 09:44:33;;;;;;;12.27;6.30;;;;;;;1.96;82.30;98989.44;4970056;28;20042;-79
2021/12/03 09:47:00;;;;;;;9.48;7.05;;;;;;;1.80;82.24;98971.84;4974965;28;20105;-80
2021/12/03 09:52:03;;;;;;;8.63;4.47;;;;;;;1.70;82.11;98969.50;5028607;28;20033;-80
2021/12/03 09:54:39;;;;;;;7.60;4.78;;;;;;;1.59;82.35;98948.34;5032036;28;20026;-80
2021/12/03 09:57:12;;;;;;;7.88;5.40;;;;;;;1.70;82.65;98973.78;5037607;28;20037;-80
2021/12/03 10:02:47;;;;;;;16.10;5.47;;;;;;;1.66;82.42;98967.88;5054640;28;20040;-80
2021/12/03 10:15:58;;;;;;;12.45;5.85;;;;;;;1.73;81.77;98966.88;5054469;28;20036;-81
2021/12/03 10:18:54;;;;;;;17.58;6.18;;;;;;;1.78;81.69;98974.47;5036625;28;20029;-81
2021/12/03 10:32:54;;;;;;;9.48;5.65;;;;;;;1.87;80.73;98963.97;4992180;28;20046;-80
2021/12/03 10:48:47;;;;;;;9.80;5.82;;;;;;;2.06;81.19;98973.81;4992175;28;20066;-80
2021/12/03 10:51:27;;;;;;;17.02;7.90;;;;;;;2.08;81.47;98972.09;4991935;28;20147;-80
2021/12/03 10:59:52;;;;;;;;;;;;;;;2.19;81.23;98983.81;4973021;28;20470;-80
2021/12/03 11:02:48;;;;;;;12.25;5.60;;;;;;;2.16;81.00;98972.75;4970231;28;20028;-80
2021/12/03 11:05:34;;;;;;;14.70;6.25;;;;;;;2.18;80.67;98974.38;4990654;28;20069;-80
2021/12/03 14:02:58;;;;;;;74.82;26.30;;;;;;;1.52;73.04;99021.22;5074572;28;20529;-80
2021/12/03 14:57:04;;;;;;;9.10;6.65;;;;;;;0.88;72.93;99064.25;4953376;28;20043;-80
2021/12/03 14:59:31;;;;;;;12.57;6.90;;;;;;;0.86;73.39;99078.00;4953173;29;20031;-81
2021/12/03 15:02:12;;;;;;;11.20;8.07;;;;;;;0.79;72.90;99079.81;4952877;29;20042;-80
2021/12/03 15:04:54;;;;;;;12.52;6.60;;;;;;;0.70;73.40;99062.84;4953448;29;20062;-81
2021/12/03 15:07:23;;;;;;;11.23;7.35;;;;;;;0.58;74.01;99059.66;4978485;28;20049;-80
2021/12/03 15:09:51;;;;;;;49.27;21.37;;;;;;;0.62;72.93;99076.66;4999238;28;20520;-80
2021/12/03 15:12:57;;;;;;;69.85;29.08;;;;;;;0.50;73.61;99063.16;5011148;28;20033;-80
2021/12/03 15:23:23;;;;;;;246.43;100.03;;;;;;;0.42;73.28;99090.66;5010990;28;20104;-77
2021/12/03 15:31:16;;;;;;;179.68;81.68;;;;;;;0.27;73.84;99088.28;5010831;28;20080;-79
2021/12/03 15:33:52;;;;;;;140.57;62.35;;;;;;;0.11;73.94;99072.28;5045766;28;20682;-77
2021/12/03 15:39:16;;;;;;;46.10;21.90;;;;;;;0.05;74.36;99067.25;4971590;28;20061;-77
2021/12/03 15:53:35;;;;;;;26.90;11.25;;;;;;;0.07;73.33;99083.44;4971468;28;20406;-82
2021/12/03 16:06:31;;;;;;;304.27;79.45;;;;;;;-0.10;72.91;99093.88;4914036;29;20032;-78
2021/12/03 16:11:59;;;;;;;87.90;32.75;;;;;;;-0.31;72.97;99063.44;4876019;29;20040;-79
2021/12/03 16:14:40;;;;;;;131.07;41.10;;;;;;;-0.33;73.69;99070.31;4860538;29;20051;-79
2021/12/03 16:17:15;;;;;;;243.80;64.88;;;;;;;-0.26;74.08;99082.13;4909450;29;20047;-77
2021/12/03 16:20:19;;;;;;;259.77;72.53;;;;;;;-0.33;74.21;99088.22;4897854;29;20408;-77
2021/12/03 16:46:49;;;;;;;63.25;30.55;;;;;;;-0.60;76.59;99120.03;4990571;28;20134;-78
2021/12/03 16:49:51;;;;;;;140.27;50.60;;;;;;;-0.65;76.85;99107.31;5043479;28;20032;-78
2021/12/03 16:52:07;;;;;;;127.70;45.63;;;;;;;-0.74;77.33;99098.88;5071528;28;20468;-78
2021/12/03 16:54:45;;;;;;;115.85;45.08;;;;;;;-0.70;77.22;99108.22;5071806;28;20033;-78
2021/12/03 16:57:12;;;;;;;111.50;44.50;;;;;;;-0.76;78.14;99107.44;5070494;28;20021;-78
2021/12/03 16:59:40;;;;;;;101.10;39.78;;;;;;;-0.72;77.81;99113.34;5070657;28;20383;-78
2021/12/03 17:02:11;;;;;;;138.25;48.22;;;;;;;-0.74;78.91;99112.53;5071435;28;20480;-78
2021/12/03 17:56:52;;;;;;;45.95;25.85;;;;;;;-0.46;82.92;99079.84;5054917;28;20037;-76
2021/12/03 17:59:33;;;;;;;32.85;20.85;;;;;;;-0.42;82.80;99084.06;5054417;28;20118;-77
2021/12/03 18:07:09;;;;;;;51.50;30.38;;;;;;;-0.48;84.66;99084.09;5054473;28;20122;-76
2021/12/03 18:15:14;;;;;;;40.80;25.85;;;;;;;-0.33;85.33;99106.13;5054160;28;20151;-78
2021/12/03 18:53:48;;;;;;;30.40;20.50;;;;;;;-0.34;87.99;99074.59;4953714;29;20098;-79
2021/12/03 18:56:31;;;;;;;31.83;20.42;;;;;;;-0.34;87.67;99071.16;4958586;28;20038;-79